createdAt,value
2017-06-30T00:00:58.174Z,16.85
2017-06-30T00:10:58.435Z,16.71
2017-06-30T00:20:58.089Z,16.65
2017-06-30T00:30:58.148Z,16.65
2017-06-30T00:40:58.467Z,16.62
2017-06-30T00:50:58.185Z,16.68
2017-06-30T01:00:58.151Z,16.71
2017-06-30T01:10:58.091Z,16.65
2017-06-30T01:20:58.172Z,16.58
2017-06-30T01:30:58.115Z,16.41
2017-06-30T01:40:58.099Z,16.09
2017-06-30T01:50:58.169Z,15.99
2017-06-30T02:00:58.118Z,15.88
2017-06-30T02:10:58.187Z,15.74
2017-06-30T02:20:58.180Z,15.68
2017-06-30T02:30:58.089Z,15.57
2017-06-30T02:40:58.271Z,15.56
2017-06-30T02:50:58.124Z,15.63
2017-06-30T03:00:58.179Z,15.6
2017-06-30T03:10:58.161Z,15.61
2017-06-30T03:20:58.142Z,15.61
2017-06-30T03:30:58.156Z,15.67
2017-06-30T03:40:58.121Z,15.7
2017-06-30T03:50:58.118Z,15.68
2017-06-30T04:00:58.175Z,15.84
2017-06-30T04:10:58.110Z,15.81
2017-06-30T04:20:58.183Z,16.09
2017-06-30T04:30:58.150Z,16.3
2017-06-30T04:40:58.082Z,16.41
2017-06-30T04:50:58.165Z,16.58
2017-06-30T05:00:58.119Z,16.83
2017-06-30T05:10:58.181Z,17.07
2017-06-30T05:20:58.150Z,17.38
2017-06-30T05:30:58.113Z,17.69
2017-06-30T05:40:58.185Z,17.88
2017-06-30T05:50:58.125Z,18.33
2017-06-30T06:00:58.147Z,18.82
2017-06-30T06:10:58.159Z,19.57
2017-06-30T06:20:58.136Z,19.6
2017-06-30T06:30:58.194Z,19.84
2017-06-30T06:40:58.151Z,20
2017-06-30T06:50:58.140Z,19.93
2017-06-30T07:00:58.191Z,19.9
2017-06-30T07:10:59.111Z,19.53
2017-06-30T07:20:58.166Z,19.43
2017-06-30T07:30:58.112Z,19.57
2017-06-30T07:40:58.278Z,18.77
2017-06-30T07:50:58.127Z,18.64
2017-06-30T08:01:00.146Z,18.12
2017-06-30T08:10:58.146Z,17.91
2017-06-30T08:20:58.139Z,18.22
2017-06-30T08:30:58.220Z,18.62
2017-06-30T08:40:58.149Z,19.31
2017-06-30T08:50:58.148Z,20.06
2017-06-30T09:00:58.242Z,21.3
2017-06-30T09:10:58.113Z,21.66
2017-06-30T09:20:58.125Z,22.1
2017-06-30T09:30:58.120Z,21.87
2017-06-30T09:40:58.121Z,21.66
2017-06-30T09:50:58.119Z,22.12
2017-06-30T10:00:58.111Z,22.32
2017-06-30T10:10:58.137Z,22.75
2017-06-30T10:20:58.141Z,22.78
2017-06-30T10:30:58.143Z,23.72
2017-06-30T10:40:58.149Z,22.99
2017-06-30T10:50:58.146Z,23.2
2017-06-30T11:00:58.138Z,22.67
2017-06-30T11:10:58.099Z,22.84
2017-06-30T11:20:58.138Z,23.15
2017-06-30T11:30:58.123Z,23.79
2017-06-30T11:40:58.122Z,23.64
2017-06-30T11:50:58.111Z,23.62
2017-06-30T12:00:58.155Z,24.1
2017-06-30T12:10:58.128Z,24.41
2017-06-30T12:20:58.136Z,24.47
2017-06-30T12:30:58.132Z,24.14
2017-06-30T12:40:58.133Z,23.45
2017-06-30T12:50:58.135Z,23.35
2017-06-30T13:00:58.141Z,22.49
2017-06-30T13:10:58.125Z,21.64
2017-06-30T13:20:58.186Z,21.45
2017-06-30T13:30:58.236Z,21.99
2017-06-30T13:40:58.217Z,22.19
2017-06-30T13:50:58.276Z,22.92
2017-06-30T14:00:58.219Z,23.39
2017-06-30T14:10:58.173Z,23.52
2017-06-30T14:20:58.168Z,23.34
2017-06-30T14:30:58.149Z,23.92
2017-06-30T14:40:58.165Z,24.32
2017-06-30T14:50:58.163Z,24.44
2017-06-30T15:00:58.206Z,23.79
2017-06-30T15:10:58.166Z,23.46
2017-06-30T15:20:58.163Z,22.75
2017-06-30T15:30:58.154Z,22.82
2017-06-30T15:40:58.182Z,22.97
2017-06-30T15:50:58.266Z,22.6
2017-06-30T16:00:58.187Z,22.09
2017-06-30T16:10:58.165Z,22.25
2017-06-30T16:20:58.200Z,22.52
2017-06-30T16:30:58.253Z,22.67
2017-06-30T16:40:58.238Z,22.16
2017-06-30T16:50:58.296Z,22.06
2017-06-30T17:00:58.213Z,21.74
2017-06-30T17:10:58.209Z,20.23
2017-06-30T17:20:58.254Z,19.01
2017-06-30T17:30:58.260Z,18.21
2017-06-30T17:40:58.314Z,17.36
2017-06-30T17:50:58.167Z,17.36
2017-06-30T18:00:58.187Z,17.22
2017-06-30T18:10:58.196Z,17.18
2017-06-30T18:20:58.189Z,17.07
2017-06-30T18:30:58.197Z,17.11
2017-06-30T18:40:58.184Z,17.15
2017-06-30T18:50:58.179Z,17.15
2017-06-30T19:00:58.200Z,17.23
2017-06-30T19:10:58.222Z,17.11
2017-06-30T19:20:58.178Z,16.99
2017-06-30T19:30:58.196Z,16.93
2017-06-30T19:40:58.196Z,16.89
2017-06-30T19:50:58.190Z,16.98
2017-06-30T20:00:58.199Z,16.93
2017-06-30T20:10:58.191Z,16.96
2017-06-30T20:20:58.217Z,16.85
2017-06-30T20:30:58.254Z,16.88
2017-06-30T20:40:58.177Z,16.74
2017-06-30T20:50:58.212Z,16.71
2017-06-30T21:00:58.180Z,16.67
2017-06-30T21:10:58.234Z,16.77
2017-06-30T21:20:58.215Z,16.78
2017-06-30T21:30:58.184Z,16.75
2017-06-30T21:40:58.212Z,16.7
2017-06-30T21:50:58.200Z,16.75
2017-06-30T22:00:59.319Z,16.74
2017-06-30T22:10:58.218Z,16.74
2017-06-30T22:20:58.174Z,16.62
2017-06-30T22:30:58.187Z,16.68
2017-06-30T22:40:59.232Z,16.67
2017-06-30T22:50:58.184Z,16.78
2017-06-30T23:00:58.177Z,16.85
2017-06-30T23:10:58.200Z,16.96
2017-06-30T23:20:58.187Z,16.77
2017-06-30T23:30:58.196Z,16.83
2017-06-30T23:40:58.176Z,16.74
2017-06-30T23:50:58.190Z,16.8
